sensor_id;sensor_type;location;lat;lon;timestamp;pressure;altitude;pressure_sealevel;temperature;humidity
48089;BME280;33867;50.314;7.802;2022-08-19T06:02:04;100098.81;;;17.63;76.43
48089;BME280;33867;50.314;7.802;2022-08-19T06:05:25;100103.91;;;17.66;77.33
48089;BME280;33867;50.314;7.802;2022-08-19T06:08:44;100100.91;;;17.61;77.15
48089;BME280;33867;50.314;7.802;2022-08-19T06:12:09;100110.66;;;17.70;77.33
48089;BME280;33867;50.314;7.802;2022-08-19T06:26:26;100129.91;;;17.90;77.58
48089;BME280;33867;50.314;7.802;2022-08-19T06:29:46;100136.06;;;18.27;74.89
48089;BME280;33867;50.314;7.802;2022-08-19T08:50:21;100163.13;;;30.31;42.51
48089;BME280;33867;50.314;7.802;2022-08-19T10:06:25;100118.06;;;29.78;40.88
48089;BME280;33867;50.314;7.802;2022-08-19T10:09:45;100119.72;;;29.54;40.75
48089;BME280;33867;50.314;7.802;2022-08-19T10:13:04;100118.75;;;29.23;41.88
48089;BME280;33867;50.314;7.802;2022-08-19T10:16:24;100110.28;;;30.51;39.10
48089;BME280;33867;50.314;7.802;2022-08-19T10:19:44;100101.25;;;31.94;37.12
48089;BME280;33867;50.314;7.802;2022-08-19T10:23:03;100102.97;;;33.43;34.71
48089;BME280;33867;50.314;7.802;2022-08-19T10:26:29;100094.31;;;34.29;34.14
48089;BME280;33867;50.314;7.802;2022-08-19T10:29:49;100091.41;;;34.67;32.70
48089;BME280;33867;50.314;7.802;2022-08-19T10:33:08;100089.47;;;33.88;32.75
48089;BME280;33867;50.314;7.802;2022-08-19T10:36:34;100090.13;;;31.00;33.63
48089;BME280;33867;50.314;7.802;2022-08-19T10:39:54;100089.28;;;32.56;32.50
48089;BME280;33867;50.314;7.802;2022-08-19T10:43:13;100083.50;;;32.48;31.76
48089;BME280;33867;50.314;7.802;2022-08-19T10:46:37;100073.84;;;31.77;34.10
48089;BME280;33867;50.314;7.802;2022-08-19T10:49:59;100079.13;;;31.74;33.94
48089;BME280;33867;50.314;7.802;2022-08-19T10:53:36;100072.31;;;33.95;32.14
48089;BME280;33867;50.314;7.802;2022-08-19T10:56:56;100059.66;;;36.07;28.66
48089;BME280;33867;50.314;7.802;2022-08-19T11:00:15;100065.97;;;37.49;27.91
48089;BME280;33867;50.314;7.802;2022-08-19T11:03:34;100067.09;;;36.74;27.74
48089;BME280;33867;50.314;7.802;2022-08-19T11:06:53;100061.59;;;37.00;27.33
48089;BME280;33867;50.314;7.802;2022-08-19T11:10:14;100056.53;;;37.71;26.68
48089;BME280;33867;50.314;7.802;2022-08-19T11:13:36;100054.06;;;37.69;26.99
48089;BME280;33867;50.314;7.802;2022-08-19T11:16:56;100048.44;;;37.61;25.91
48089;BME280;33867;50.314;7.802;2022-08-19T11:20:15;100058.56;;;35.72;27.81
48089;BME280;33867;50.314;7.802;2022-08-19T11:23:35;100069.97;;;34.16;28.90
48089;BME280;33867;50.314;7.802;2022-08-19T11:27:01;100062.81;;;33.77;30.14
48089;BME280;33867;50.314;7.802;2022-08-19T11:30:21;100054.84;;;34.63;28.79
48089;BME280;33867;50.314;7.802;2022-08-19T11:33:40;100052.59;;;33.54;29.02
48089;BME280;33867;50.314;7.802;2022-08-19T11:37:01;100049.56;;;32.89;31.04
48089;BME280;33867;50.314;7.802;2022-08-19T11:40:20;100047.09;;;32.63;29.60
48089;BME280;33867;50.314;7.802;2022-08-19T11:43:39;100050.50;;;32.31;30.86
48089;BME280;33867;50.314;7.802;2022-08-19T11:46:58;100046.28;;;33.05;29.32
48089;BME280;33867;50.314;7.802;2022-08-19T11:50:19;100048.25;;;33.24;30.64
48089;BME280;33867;50.314;7.802;2022-08-19T11:53:39;100054.94;;;34.44;27.54
48089;BME280;33867;50.314;7.802;2022-08-19T11:56:58;100051.16;;;36.21;26.01
48089;BME280;33867;50.314;7.802;2022-08-19T12:00:17;100051.22;;;37.95;25.26
48089;BME280;33867;50.314;7.802;2022-08-19T12:03:38;100051.91;;;39.15;24.04
48089;BME280;33867;50.314;7.802;2022-08-19T12:06:58;100043.53;;;40.48;23.18
48089;BME280;33867;50.314;7.802;2022-08-19T12:10:17;100047.22;;;40.97;21.81
48089;BME280;33867;50.314;7.802;2022-08-19T12:13:37;100043.59;;;38.13;23.93
48089;BME280;33867;50.314;7.802;2022-08-19T12:16:56;100039.53;;;36.05;25.82
48089;BME280;33867;50.314;7.802;2022-08-19T12:20:15;100039.81;;;34.45;26.94
48089;BME280;33867;50.314;7.802;2022-08-19T12:23:36;100037.22;;;34.90;26.88
48089;BME280;33867;50.314;7.802;2022-08-19T12:26:56;100037.53;;;36.59;26.72
48089;BME280;33867;50.314;7.802;2022-08-19T12:30:16;100025.63;;;37.62;25.30
48089;BME280;33867;50.314;7.802;2022-08-19T12:33:35;100023.47;;;37.68;24.76
48089;BME280;33867;50.314;7.802;2022-08-19T12:36:54;100012.66;;;38.13;24.15
48089;BME280;33867;50.314;7.802;2022-08-19T12:40:16;100013.94;;;35.31;26.04
48089;BME280;33867;50.314;7.802;2022-08-19T12:43:36;100009.63;;;33.50;27.79
48089;BME280;33867;50.314;7.802;2022-08-19T12:46:57;100009.81;;;35.73;27.63
48089;BME280;33867;50.314;7.802;2022-08-19T12:50:16;99997.13;;;36.77;25.08
48089;BME280;33867;50.314;7.802;2022-08-19T13:00:51;99985.03;;;36.51;23.77
48089;BME280;33867;50.314;7.802;2022-08-19T13:11:21;99959.34;;;34.56;26.09
48089;BME280;33867;50.314;7.802;2022-08-19T13:25:37;99991.66;;;32.80;27.27
48089;BME280;33867;50.314;7.802;2022-08-19T13:28:56;100001.53;;;33.34;27.89
48089;BME280;33867;50.314;7.802;2022-08-19T13:32:34;99995.28;;;34.35;26.36
48089;BME280;33867;50.314;7.802;2022-08-19T13:53:28;99976.72;;;37.20;23.88
48089;BME280;33867;50.314;7.802;2022-08-19T13:56:49;99973.75;;;37.08;24.04
48089;BME280;33867;50.314;7.802;2022-08-19T14:00:15;99974.91;;;37.24;24.07
48089;BME280;33867;50.314;7.802;2022-08-19T14:10:53;99995.50;;;33.60;27.40
48089;BME280;33867;50.314;7.802;2022-08-19T14:14:13;99998.25;;;32.66;27.60
48089;BME280;33867;50.314;7.802;2022-08-19T14:17:32;99996.34;;;32.13;27.67
48089;BME280;33867;50.314;7.802;2022-08-19T14:20:53;99988.47;;;32.20;27.80
48089;BME280;33867;50.314;7.802;2022-08-19T14:27:56;99996.16;;;33.89;27.42
48089;BME280;33867;50.314;7.802;2022-08-19T14:31:17;99995.75;;;34.10;27.18
48089;BME280;33867;50.314;7.802;2022-08-19T14:38:18;99986.78;;;33.48;27.74
48089;BME280;33867;50.314;7.802;2022-08-19T14:41:40;99984.00;;;33.10;27.90
48089;BME280;33867;50.314;7.802;2022-08-19T14:45:00;99994.25;;;33.33;26.95
48089;BME280;33867;50.314;7.802;2022-08-19T14:48:19;100002.28;;;33.40;26.53
48089;BME280;33867;50.314;7.802;2022-08-19T14:51:40;99996.16;;;33.89;26.42
48089;BME280;33867;50.314;7.802;2022-08-19T14:54:59;99992.72;;;34.39;25.52
48089;BME280;33867;50.314;7.802;2022-08-19T14:58:19;99993.22;;;33.29;25.91
48089;BME280;33867;50.314;7.802;2022-08-19T15:01:48;99994.25;;;33.52;25.49
48089;BME280;33867;50.314;7.802;2022-08-19T15:16:01;100007.31;;;32.76;27.16
48089;BME280;33867;50.314;7.802;2022-08-19T15:19:20;100011.06;;;31.90;26.99
48089;BME280;33867;50.314;7.802;2022-08-19T15:22:40;100003.22;;;30.74;27.89
48089;BME280;33867;50.314;7.802;2022-08-19T15:25:55;100004.16;;;30.49;29.47
48089;BME280;33867;50.314;7.802;2022-08-19T15:29:14;100005.81;;;30.50;29.33
48089;BME280;33867;50.314;7.802;2022-08-19T15:32:38;99997.66;;;30.74;27.95
48089;BME280;33867;50.314;7.802;2022-08-19T15:39:46;99992.31;;;30.88;28.62
48089;BME280;33867;50.314;7.802;2022-08-19T15:50:16;99988.81;;;31.11;29.23
48089;BME280;33867;50.314;7.802;2022-08-19T16:00:51;99978.06;;;30.45;30.28
48089;BME280;33867;50.314;7.802;2022-08-19T16:40:49;99985.56;;;28.82;33.82
48089;BME280;33867;50.314;7.802;2022-08-19T16:47:49;100005.16;;;28.60;33.45
48089;BME280;33867;50.314;7.802;2022-08-19T16:51:09;100000.09;;;28.47;33.78
48089;BME280;33867;50.314;7.802;2022-08-19T16:54:53;100000.59;;;28.34;33.64
48089;BME280;33867;50.314;7.802;2022-08-19T16:58:12;100005.69;;;28.10;33.68
48089;BME280;33867;50.314;7.802;2022-08-19T17:01:31;100004.09;;;28.19;33.99
48089;BME280;33867;50.314;7.802;2022-08-19T17:04:51;100007.50;;;27.89;34.79
48089;BME280;33867;50.314;7.802;2022-08-19T17:08:11;100015.06;;;27.66;34.68
48089;BME280;33867;50.314;7.802;2022-08-19T17:11:30;100020.06;;;27.37;35.37
48089;BME280;33867;50.314;7.802;2022-08-19T17:22:08;100023.25;;;27.24;35.84
48089;BME280;33867;50.314;7.802;2022-08-19T17:28:59;100017.91;;;27.18;35.73
48089;BME280;33867;50.314;7.802;2022-08-19T17:32:18;100022.56;;;27.12;36.64
48089;BME280;33867;50.314;7.802;2022-08-19T17:35:38;100021.66;;;27.06;36.47
48089;BME280;33867;50.314;7.802;2022-08-19T17:39:02;100024.16;;;27.08;36.40
48089;BME280;33867;50.314;7.802;2022-08-19T17:42:22;100019.28;;;26.93;36.88
48089;BME280;33867;50.314;7.802;2022-08-19T17:45:42;100033.88;;;26.89;37.21
48089;BME280;33867;50.314;7.802;2022-08-19T17:49:01;100035.69;;;26.78;37.13
48089;BME280;33867;50.314;7.802;2022-08-19T17:52:20;100029.59;;;26.76;37.50
48089;BME280;33867;50.314;7.802;2022-08-19T17:55:39;100048.41;;;26.57;37.39
48089;BME280;33867;50.314;7.802;2022-08-19T17:58:59;100034.88;;;26.39;38.11
48089;BME280;33867;50.314;7.802;2022-08-19T18:02:18;100044.53;;;26.36;38.37
48089;BME280;33867;50.314;7.802;2022-08-19T18:05:41;100047.63;;;26.23;38.47
48089;BME280;33867;50.314;7.802;2022-08-19T18:09:03;100050.50;;;25.78;39.14
48089;BME280;33867;50.314;7.802;2022-08-19T18:12:24;100058.38;;;25.86;39.26
48089;BME280;33867;50.314;7.802;2022-08-19T18:15:44;100058.38;;;25.86;39.52
48089;BME280;33867;50.314;7.802;2022-08-19T18:19:03;100070.50;;;25.85;39.62
48089;BME280;33867;50.314;7.802;2022-08-19T18:22:26;100071.91;;;25.71;39.71
48089;BME280;33867;50.314;7.802;2022-08-19T18:25:46;100090.41;;;25.58;40.17
48089;BME280;33867;50.314;7.802;2022-08-19T18:29:06;100089.28;;;25.43;40.40
48089;BME280;33867;50.314;7.802;2022-08-19T18:32:27;100091.97;;;25.38;40.73
48089;BME280;33867;50.314;7.802;2022-08-19T18:35:48;100086.75;;;25.24;40.55
48089;BME280;33867;50.314;7.802;2022-08-19T18:39:09;100096.00;;;25.18;41.04
48089;BME280;33867;50.314;7.802;2022-08-19T18:42:47;100099.75;;;25.12;40.92
48089;BME280;33867;50.314;7.802;2022-08-19T18:46:21;100104.75;;;25.15;41.03
48089;BME280;33867;50.314;7.802;2022-08-19T18:49:59;100109.94;;;25.00;41.28
48089;BME280;33867;50.314;7.802;2022-08-19T18:53:29;100112.94;;;24.98;41.90
48089;BME280;33867;50.314;7.802;2022-08-19T18:56:49;100127.41;;;24.94;41.60
48089;BME280;33867;50.314;7.802;2022-08-19T19:00:13;100121.09;;;24.82;42.14
48089;BME280;33867;50.314;7.802;2022-08-19T19:03:33;100129.63;;;24.80;42.31
48089;BME280;33867;50.314;7.802;2022-08-19T19:06:52;100134.41;;;24.73;42.53
48089;BME280;33867;50.314;7.802;2022-08-19T19:10:12;100139.56;;;24.69;42.61
48089;BME280;33867;50.314;7.802;2022-08-19T19:13:32;100137.06;;;24.56;43.04
48089;BME280;33867;50.314;7.802;2022-08-19T19:16:51;100141.97;;;24.54;43.23
48089;BME280;33867;50.314;7.802;2022-08-19T19:20:11;100155.38;;;24.39;43.57
48089;BME280;33867;50.314;7.802;2022-08-19T19:23:30;100156.22;;;24.39;43.99
48089;BME280;33867;50.314;7.802;2022-08-19T19:26:51;100156.34;;;24.33;43.81
48089;BME280;33867;50.314;7.802;2022-08-19T19:30:11;100159.09;;;24.33;43.80
48089;BME280;33867;50.314;7.802;2022-08-19T19:33:31;100165.19;;;24.35;43.72
48089;BME280;33867;50.314;7.802;2022-08-19T19:36:51;100171.16;;;24.32;43.96
48089;BME280;33867;50.314;7.802;2022-08-19T19:40:10;100173.94;;;24.32;44.32
48089;BME280;33867;50.314;7.802;2022-08-19T19:43:29;100179.25;;;24.27;44.37
48089;BME280;33867;50.314;7.802;2022-08-19T19:46:49;100176.28;;;24.16;45.09
48089;BME280;33867;50.314;7.802;2022-08-19T19:50:08;100173.97;;;24.13;45.47
48089;BME280;33867;50.314;7.802;2022-08-19T19:53:28;100182.22;;;24.13;45.29
48089;BME280;33867;50.314;7.802;2022-08-19T19:56:47;100183.44;;;24.06;45.42
48089;BME280;33867;50.314;7.802;2022-08-19T20:00:08;100187.94;;;24.00;45.70
48089;BME280;33867;50.314;7.802;2022-08-19T20:03:29;100184.94;;;23.90;46.43
48089;BME280;33867;50.314;7.802;2022-08-19T20:06:48;100186.19;;;23.76;47.97
48089;BME280;33867;50.314;7.802;2022-08-19T20:10:08;100191.38;;;23.84;47.51
48089;BME280;33867;50.314;7.802;2022-08-19T20:13:28;100192.34;;;23.89;47.10
48089;BME280;33867;50.314;7.802;2022-08-19T20:16:49;100196.06;;;23.95;47.25
48089;BME280;33867;50.314;7.802;2022-08-19T20:20:11;100187.59;;;23.97;48.62
48089;BME280;33867;50.314;7.802;2022-08-19T20:23:31;100197.34;;;23.81;48.10
48089;BME280;33867;50.314;7.802;2022-08-19T20:26:51;100192.81;;;23.56;49.95
48089;BME280;33867;50.314;7.802;2022-08-19T20:30:13;100201.97;;;23.69;49.78
48089;BME280;33867;50.314;7.802;2022-08-19T20:33:34;100205.22;;;23.77;48.55
48089;BME280;33867;50.314;7.802;2022-08-19T20:36:53;100207.00;;;23.72;49.06
48089;BME280;33867;50.314;7.802;2022-08-19T20:40:12;100210.91;;;23.64;50.16
48089;BME280;33867;50.314;7.802;2022-08-19T20:43:32;100207.72;;;23.30;52.35
48089;BME280;33867;50.314;7.802;2022-08-19T20:46:52;100207.69;;;23.49;50.41
48089;BME280;33867;50.314;7.802;2022-08-19T20:50:12;100206.88;;;23.48;51.15
48089;BME280;33867;50.314;7.802;2022-08-19T20:53:31;100201.06;;;23.38;52.65
48089;BME280;33867;50.314;7.802;2022-08-19T20:56:50;100214.09;;;23.43;51.46
48089;BME280;33867;50.314;7.802;2022-08-19T21:00:10;100225.50;;;23.46;51.24
48089;BME280;33867;50.314;7.802;2022-08-19T21:03:34;100214.03;;;23.49;51.39
48089;BME280;33867;50.314;7.802;2022-08-19T21:06:54;100225.03;;;23.49;51.83
48089;BME280;33867;50.314;7.802;2022-08-19T21:10:13;100220.00;;;23.46;51.52
48089;BME280;33867;50.314;7.802;2022-08-19T21:13:33;100218.69;;;23.49;51.59
48089;BME280;33867;50.314;7.802;2022-08-19T21:16:52;100222.03;;;23.51;52.04
48089;BME280;33867;50.314;7.802;2022-08-19T21:20:12;100222.28;;;23.49;52.09
48089;BME280;33867;50.314;7.802;2022-08-19T21:23:31;100218.69;;;23.49;51.78
48089;BME280;33867;50.314;7.802;2022-08-19T21:26:50;100226.09;;;23.48;51.67
48089;BME280;33867;50.314;7.802;2022-08-19T21:30:10;100235.66;;;23.46;51.84
48089;BME280;33867;50.314;7.802;2022-08-19T21:33:29;100231.91;;;23.40;52.63
48089;BME280;33867;50.314;7.802;2022-08-19T21:36:49;100221.63;;;23.36;52.03
48089;BME280;33867;50.314;7.802;2022-08-19T21:40:09;100226.09;;;23.30;53.39
48089;BME280;33867;50.314;7.802;2022-08-19T21:43:29;100236.25;;;23.29;53.31
48089;BME280;33867;50.314;7.802;2022-08-19T21:46:48;100234.22;;;23.25;53.27
48089;BME280;33867;50.314;7.802;2022-08-19T21:50:09;100240.19;;;23.22;53.66
48089;BME280;33867;50.314;7.802;2022-08-19T23:46:07;100243.72;;;22.36;61.72
48089;BME280;33867;50.314;7.802;2022-08-19T23:49:27;100247.47;;;22.41;60.22
48089;BME280;33867;50.314;7.802;2022-08-19T23:52:50;100243.00;;;22.47;59.45
48089;BME280;33867;50.314;7.802;2022-08-19T23:56:11;100243.06;;;22.40;60.21
48089;BME280;33867;50.314;7.802;2022-08-19T23:59:30;100253.56;;;22.43;59.87
